sensor_id;sensor_type;location;lat;lon;timestamp;P1;durP1;ratioP1;P2;durP2;ratioP2
17520;SDS011;8878;-33.370;-70.552;2023-05-14T00:02:17;30.30;;;10.60;;
17520;SDS011;8878;-33.370;-70.552;2023-05-14T00:04:48;26.17;;;10.07;;
17520;SDS011;8878;-33.370;-70.552;2023-05-14T00:07:18;28.20;;;11.02;;
17520;SDS011;8878;-33.370;-70.552;2023-05-14T00:09:48;28.50;;;11.00;;
17520;SDS011;8878;-33.370;-70.552;2023-05-14T00:12:17;21.15;;;9.95;;
17520;SDS011;8878;-33.370;-70.552;2023-05-14T00:14:47;38.17;;;10.93;;
17520;SDS011;8878;-33.370;-70.552;2023-05-14T00:17:17;34.10;;;10.23;;
17520;SDS011;8878;-33.370;-70.552;2023-05-14T00:19:49;28.33;;;10.25;;
17520;SDS011;8878;-33.370;-70.552;2023-05-14T00:22:18;27.75;;;9.35;;
17520;SDS011;8878;-33.370;-70.552;2023-05-14T00:24:48;31.23;;;10.43;;
17520;SDS011;8878;-33.370;-70.552;2023-05-14T00:27:20;28.42;;;9.80;;
17520;SDS011;8878;-33.370;-70.552;2023-05-14T00:29:49;21.55;;;8.80;;
17520;SDS011;8878;-33.370;-70.552;2023-05-14T00:32:21;26.90;;;9.63;;
17520;SDS011;8878;-33.370;-70.552;2023-05-14T00:34:51;24.13;;;9.10;;
17520;SDS011;8878;-33.370;-70.552;2023-05-14T00:37:20;26.67;;;10.98;;
17520;SDS011;8878;-33.370;-70.552;2023-05-14T00:39:50;37.33;;;11.07;;
17520;SDS011;8878;-33.370;-70.552;2023-05-14T00:42:19;26.65;;;10.82;;
17520;SDS011;8878;-33.370;-70.552;2023-05-14T00:44:48;20.55;;;9.40;;
17520;SDS011;8878;-33.370;-70.552;2023-05-14T00:47:18;22.23;;;9.70;;
17520;SDS011;8878;-33.370;-70.552;2023-05-14T00:49:49;29.10;;;11.15;;
17520;SDS011;8878;-33.370;-70.552;2023-05-14T00:52:18;30.95;;;9.85;;
17520;SDS011;8878;-33.370;-70.552;2023-05-14T00:54:48;22.42;;;9.85;;
17520;SDS011;8878;-33.370;-70.552;2023-05-14T00:57:18;26.65;;;9.90;;
17520;SDS011;8878;-33.370;-70.552;2023-05-14T00:59:48;29.58;;;8.95;;
17520;SDS011;8878;-33.370;-70.552;2023-05-14T01:02:17;24.48;;;8.98;;
17520;SDS011;8878;-33.370;-70.552;2023-05-14T01:04:49;24.52;;;9.88;;
17520;SDS011;8878;-33.370;-70.552;2023-05-14T01:07:20;21.80;;;9.60;;
17520;SDS011;8878;-33.370;-70.552;2023-05-14T01:10:01;30.33;;;10.73;;
17520;SDS011;8878;-33.370;-70.552;2023-05-14T01:12:36;23.58;;;9.15;;
17520;SDS011;8878;-33.370;-70.552;2023-05-14T01:15:14;25.65;;;8.45;;
17520;SDS011;8878;-33.370;-70.552;2023-05-14T01:17:51;24.73;;;7.13;;
17520;SDS011;8878;-33.370;-70.552;2023-05-14T01:20:24;19.90;;;9.32;;
17520;SDS011;8878;-33.370;-70.552;2023-05-14T01:22:56;29.50;;;8.80;;
17520;SDS011;8878;-33.370;-70.552;2023-05-14T01:25:25;28.73;;;9.75;;
17520;SDS011;8878;-33.370;-70.552;2023-05-14T01:27:56;24.70;;;9.18;;
17520;SDS011;8878;-33.370;-70.552;2023-05-14T01:30:34;24.00;;;9.75;;
17520;SDS011;8878;-33.370;-70.552;2023-05-14T01:33:05;27.65;;;7.97;;
17520;SDS011;8878;-33.370;-70.552;2023-05-14T01:35:38;23.85;;;8.60;;
17520;SDS011;8878;-33.370;-70.552;2023-05-14T01:38:10;23.52;;;8.52;;
17520;SDS011;8878;-33.370;-70.552;2023-05-14T01:40:42;21.77;;;8.45;;
17520;SDS011;8878;-33.370;-70.552;2023-05-14T01:43:12;22.58;;;8.05;;
17520;SDS011;8878;-33.370;-70.552;2023-05-14T01:45:42;22.27;;;8.40;;
17520;SDS011;8878;-33.370;-70.552;2023-05-14T01:48:12;26.02;;;8.73;;
17520;SDS011;8878;-33.370;-70.552;2023-05-14T01:50:42;22.85;;;8.82;;
17520;SDS011;8878;-33.370;-70.552;2023-05-14T01:53:13;25.90;;;8.70;;
17520;SDS011;8878;-33.370;-70.552;2023-05-14T01:55:43;23.52;;;9.48;;
17520;SDS011;8878;-33.370;-70.552;2023-05-14T01:58:13;18.83;;;7.88;;
17520;SDS011;8878;-33.370;-70.552;2023-05-14T02:00:42;24.35;;;7.60;;
17520;SDS011;8878;-33.370;-70.552;2023-05-14T02:03:12;14.15;;;6.55;;
17520;SDS011;8878;-33.370;-70.552;2023-05-14T02:05:41;22.85;;;7.78;;
17520;SDS011;8878;-33.370;-70.552;2023-05-14T02:08:10;26.65;;;8.13;;
17520;SDS011;8878;-33.370;-70.552;2023-05-14T02:10:42;20.63;;;7.45;;
17520;SDS011;8878;-33.370;-70.552;2023-05-14T02:13:11;15.18;;;7.22;;
17520;SDS011;8878;-33.370;-70.552;2023-05-14T02:15:42;21.63;;;7.72;;
17520;SDS011;8878;-33.370;-70.552;2023-05-14T02:18:12;19.90;;;7.72;;
17520;SDS011;8878;-33.370;-70.552;2023-05-14T02:20:41;19.83;;;5.70;;
17520;SDS011;8878;-33.370;-70.552;2023-05-14T02:23:11;17.55;;;6.70;;
17520;SDS011;8878;-33.370;-70.552;2023-05-14T02:25:43;16.55;;;6.28;;
17520;SDS011;8878;-33.370;-70.552;2023-05-14T02:28:13;14.85;;;5.38;;
17520;SDS011;8878;-33.370;-70.552;2023-05-14T02:30:42;19.83;;;6.32;;
17520;SDS011;8878;-33.370;-70.552;2023-05-14T02:33:12;15.98;;;5.40;;
17520;SDS011;8878;-33.370;-70.552;2023-05-14T02:35:41;14.93;;;4.97;;
17520;SDS011;8878;-33.370;-70.552;2023-05-14T02:38:11;13.07;;;6.20;;
17520;SDS011;8878;-33.370;-70.552;2023-05-14T02:40:42;9.55;;;4.63;;
17520;SDS011;8878;-33.370;-70.552;2023-05-14T02:43:11;11.07;;;4.32;;
17520;SDS011;8878;-33.370;-70.552;2023-05-14T02:45:41;13.48;;;4.78;;
17520;SDS011;8878;-33.370;-70.552;2023-05-14T02:48:10;11.02;;;4.55;;
17520;SDS011;8878;-33.370;-70.552;2023-05-14T02:50:40;18.98;;;5.80;;
17520;SDS011;8878;-33.370;-70.552;2023-05-14T02:53:09;10.55;;;4.60;;
17520;SDS011;8878;-33.370;-70.552;2023-05-14T02:55:41;10.20;;;5.63;;
17520;SDS011;8878;-33.370;-70.552;2023-05-14T02:58:10;14.57;;;5.80;;
17520;SDS011;8878;-33.370;-70.552;2023-05-14T03:00:40;12.52;;;5.60;;
17520;SDS011;8878;-33.370;-70.552;2023-05-14T03:03:09;15.18;;;5.15;;
17520;SDS011;8878;-33.370;-70.552;2023-05-14T03:05:39;12.45;;;5.72;;
17520;SDS011;8878;-33.370;-70.552;2023-05-14T03:08:08;16.85;;;5.90;;
17520;SDS011;8878;-33.370;-70.552;2023-05-14T03:10:40;15.93;;;5.97;;
17520;SDS011;8878;-33.370;-70.552;2023-05-14T03:13:09;14.50;;;5.05;;
17520;SDS011;8878;-33.370;-70.552;2023-05-14T03:15:42;17.90;;;5.65;;
17520;SDS011;8878;-33.370;-70.552;2023-05-14T03:18:12;8.32;;;4.82;;
17520;SDS011;8878;-33.370;-70.552;2023-05-14T03:20:42;15.75;;;6.38;;
17520;SDS011;8878;-33.370;-70.552;2023-05-14T03:23:12;12.00;;;5.68;;
17520;SDS011;8878;-33.370;-70.552;2023-05-14T03:25:43;19.55;;;5.93;;
17520;SDS011;8878;-33.370;-70.552;2023-05-14T03:28:13;13.30;;;4.95;;
17520;SDS011;8878;-33.370;-70.552;2023-05-14T03:30:42;12.05;;;6.78;;
17520;SDS011;8878;-33.370;-70.552;2023-05-14T03:33:12;12.57;;;4.90;;
17520;SDS011;8878;-33.370;-70.552;2023-05-14T03:35:41;16.90;;;5.93;;
17520;SDS011;8878;-33.370;-70.552;2023-05-14T03:38:11;18.65;;;6.20;;
17520;SDS011;8878;-33.370;-70.552;2023-05-14T03:40:40;16.85;;;6.00;;
17520;SDS011;8878;-33.370;-70.552;2023-05-14T03:43:12;16.75;;;6.30;;
17520;SDS011;8878;-33.370;-70.552;2023-05-14T03:45:41;14.00;;;6.18;;
17520;SDS011;8878;-33.370;-70.552;2023-05-14T03:48:11;23.42;;;7.40;;
17520;SDS011;8878;-33.370;-70.552;2023-05-14T03:50:40;12.93;;;5.20;;
17520;SDS011;8878;-33.370;-70.552;2023-05-14T03:53:10;14.35;;;5.53;;
17520;SDS011;8878;-33.370;-70.552;2023-05-14T03:55:39;16.85;;;5.53;;
17520;SDS011;8878;-33.370;-70.552;2023-05-14T03:58:10;19.25;;;6.20;;
17520;SDS011;8878;-33.370;-70.552;2023-05-14T04:00:40;15.55;;;5.90;;
17520;SDS011;8878;-33.370;-70.552;2023-05-14T04:03:10;10.57;;;4.70;;
17520;SDS011;8878;-33.370;-70.552;2023-05-14T04:05:40;13.82;;;4.97;;
17520;SDS011;8878;-33.370;-70.552;2023-05-14T04:08:09;11.60;;;4.75;;
17520;SDS011;8878;-33.370;-70.552;2023-05-14T04:10:39;12.32;;;4.80;;
17520;SDS011;8878;-33.370;-70.552;2023-05-14T04:13:10;21.05;;;4.43;;
17520;SDS011;8878;-33.370;-70.552;2023-05-14T04:15:39;16.38;;;5.25;;
17520;SDS011;8878;-33.370;-70.552;2023-05-14T04:18:09;12.32;;;4.35;;
17520;SDS011;8878;-33.370;-70.552;2023-05-14T04:20:38;13.60;;;4.83;;
17520;SDS011;8878;-33.370;-70.552;2023-05-14T04:23:08;12.23;;;5.43;;
17520;SDS011;8878;-33.370;-70.552;2023-05-14T04:25:37;12.47;;;5.70;;
17520;SDS011;8878;-33.370;-70.552;2023-05-14T04:28:07;9.97;;;4.63;;
17520;SDS011;8878;-33.370;-70.552;2023-05-14T04:30:38;14.90;;;4.88;;
17520;SDS011;8878;-33.370;-70.552;2023-05-14T04:33:08;15.07;;;4.13;;
17520;SDS011;8878;-33.370;-70.552;2023-05-14T04:35:37;11.60;;;5.55;;
17520;SDS011;8878;-33.370;-70.552;2023-05-14T04:38:07;15.07;;;5.07;;
17520;SDS011;8878;-33.370;-70.552;2023-05-14T04:40:37;9.15;;;4.40;;
17520;SDS011;8878;-33.370;-70.552;2023-05-14T04:43:07;16.47;;;5.00;;
17520;SDS011;8878;-33.370;-70.552;2023-05-14T04:45:39;12.93;;;4.30;;
17520;SDS011;8878;-33.370;-70.552;2023-05-14T04:48:08;11.67;;;5.23;;
17520;SDS011;8878;-33.370;-70.552;2023-05-14T04:50:38;17.30;;;5.30;;
17520;SDS011;8878;-33.370;-70.552;2023-05-14T04:53:08;14.67;;;4.77;;
17520;SDS011;8878;-33.370;-70.552;2023-05-14T04:55:38;10.50;;;4.40;;
17520;SDS011;8878;-33.370;-70.552;2023-05-14T04:58:07;16.23;;;5.27;;
17520;SDS011;8878;-33.370;-70.552;2023-05-14T05:00:39;14.00;;;4.40;;
17520;SDS011;8878;-33.370;-70.552;2023-05-14T05:03:09;8.98;;;3.55;;
17520;SDS011;8878;-33.370;-70.552;2023-05-14T05:05:39;12.50;;;3.90;;
17520;SDS011;8878;-33.370;-70.552;2023-05-14T05:08:08;15.52;;;3.17;;
17520;SDS011;8878;-33.370;-70.552;2023-05-14T05:10:38;11.63;;;3.65;;
17520;SDS011;8878;-33.370;-70.552;2023-05-14T05:13:07;8.07;;;3.13;;
17520;SDS011;8878;-33.370;-70.552;2023-05-14T05:15:39;8.48;;;3.15;;
17520;SDS011;8878;-33.370;-70.552;2023-05-14T05:18:08;10.73;;;4.03;;
17520;SDS011;8878;-33.370;-70.552;2023-05-14T05:20:38;6.63;;;3.33;;
17520;SDS011;8878;-33.370;-70.552;2023-05-14T05:23:07;8.00;;;4.10;;
17520;SDS011;8878;-33.370;-70.552;2023-05-14T05:25:38;11.55;;;3.90;;
17520;SDS011;8878;-33.370;-70.552;2023-05-14T05:28:07;14.03;;;5.20;;
17520;SDS011;8878;-33.370;-70.552;2023-05-14T05:30:39;12.00;;;4.53;;
17520;SDS011;8878;-33.370;-70.552;2023-05-14T05:33:10;11.70;;;4.70;;
17520;SDS011;8878;-33.370;-70.552;2023-05-14T05:35:39;13.87;;;4.87;;
17520;SDS011;8878;-33.370;-70.552;2023-05-14T05:38:09;13.73;;;4.67;;
17520;SDS011;8878;-33.370;-70.552;2023-05-14T05:40:40;10.75;;;4.65;;
17520;SDS011;8878;-33.370;-70.552;2023-05-14T05:43:11;10.73;;;3.45;;
17520;SDS011;8878;-33.370;-70.552;2023-05-14T05:45:42;7.93;;;3.28;;
17520;SDS011;8878;-33.370;-70.552;2023-05-14T05:48:12;9.88;;;3.50;;
17520;SDS011;8878;-33.370;-70.552;2023-05-14T05:50:41;10.48;;;3.85;;
17520;SDS011;8878;-33.370;-70.552;2023-05-14T05:53:12;7.07;;;3.63;;
17520;SDS011;8878;-33.370;-70.552;2023-05-14T05:55:42;6.50;;;3.30;;
17520;SDS011;8878;-33.370;-70.552;2023-05-14T05:58:12;10.02;;;3.22;;
17520;SDS011;8878;-33.370;-70.552;2023-05-14T06:00:43;11.02;;;3.63;;
17520;SDS011;8878;-33.370;-70.552;2023-05-14T06:03:14;7.90;;;3.37;;
17520;SDS011;8878;-33.370;-70.552;2023-05-14T06:05:44;6.35;;;2.97;;
17520;SDS011;8878;-33.370;-70.552;2023-05-14T06:08:13;7.22;;;3.13;;
17520;SDS011;8878;-33.370;-70.552;2023-05-14T06:10:42;7.73;;;3.43;;
17520;SDS011;8878;-33.370;-70.552;2023-05-14T06:13:12;6.75;;;3.30;;
17520;SDS011;8878;-33.370;-70.552;2023-05-14T06:15:43;6.57;;;2.87;;
17520;SDS011;8878;-33.370;-70.552;2023-05-14T06:18:12;3.87;;;2.47;;
17520;SDS011;8878;-33.370;-70.552;2023-05-14T06:20:42;7.80;;;3.37;;
17520;SDS011;8878;-33.370;-70.552;2023-05-14T06:23:12;7.47;;;3.80;;
17520;SDS011;8878;-33.370;-70.552;2023-05-14T06:25:43;11.73;;;4.03;;
17520;SDS011;8878;-33.370;-70.552;2023-05-14T06:28:12;15.30;;;5.70;;
17520;SDS011;8878;-33.370;-70.552;2023-05-14T06:30:44;9.83;;;4.47;;
17520;SDS011;8878;-33.370;-70.552;2023-05-14T06:33:14;9.63;;;4.22;;
17520;SDS011;8878;-33.370;-70.552;2023-05-14T06:35:44;20.10;;;4.60;;
17520;SDS011;8878;-33.370;-70.552;2023-05-14T06:38:14;18.97;;;4.50;;
17520;SDS011;8878;-33.370;-70.552;2023-05-14T06:40:43;9.33;;;4.57;;
17520;SDS011;8878;-33.370;-70.552;2023-05-14T06:43:13;10.20;;;3.65;;
17520;SDS011;8878;-33.370;-70.552;2023-05-14T06:45:44;11.87;;;5.23;;
17520;SDS011;8878;-33.370;-70.552;2023-05-14T06:48:16;15.70;;;4.97;;
17520;SDS011;8878;-33.370;-70.552;2023-05-14T06:50:47;12.07;;;4.33;;
17520;SDS011;8878;-33.370;-70.552;2023-05-14T06:53:16;15.45;;;4.47;;
17520;SDS011;8878;-33.370;-70.552;2023-05-14T06:55:46;9.30;;;4.50;;
17520;SDS011;8878;-33.370;-70.552;2023-05-14T06:58:16;8.60;;;3.13;;
17520;SDS011;8878;-33.370;-70.552;2023-05-14T07:00:47;9.37;;;3.40;;
17520;SDS011;8878;-33.370;-70.552;2023-05-14T07:03:16;6.67;;;3.27;;
17520;SDS011;8878;-33.370;-70.552;2023-05-14T07:05:47;8.30;;;3.23;;
17520;SDS011;8878;-33.370;-70.552;2023-05-14T07:08:16;6.33;;;2.83;;
17520;SDS011;8878;-33.370;-70.552;2023-05-14T07:10:46;8.77;;;3.40;;
17520;SDS011;8878;-33.370;-70.552;2023-05-14T07:13:16;7.40;;;3.67;;
17520;SDS011;8878;-33.370;-70.552;2023-05-14T07:15:45;11.70;;;4.10;;
17520;SDS011;8878;-33.370;-70.552;2023-05-14T07:18:16;6.67;;;2.87;;
17520;SDS011;8878;-33.370;-70.552;2023-05-14T07:20:45;8.23;;;3.27;;
17520;SDS011;8878;-33.370;-70.552;2023-05-14T07:23:15;8.23;;;3.30;;
17520;SDS011;8878;-33.370;-70.552;2023-05-14T07:25:44;4.80;;;1.90;;
17520;SDS011;8878;-33.370;-70.552;2023-05-14T07:28:14;4.70;;;2.20;;
17520;SDS011;8878;-33.370;-70.552;2023-05-14T07:30:44;4.30;;;1.70;;
17520;SDS011;8878;-33.370;-70.552;2023-05-14T07:33:16;1.63;;;1.00;;
17520;SDS011;8878;-33.370;-70.552;2023-05-14T07:35:45;5.03;;;1.93;;
17520;SDS011;8878;-33.370;-70.552;2023-05-14T07:38:15;1.67;;;1.47;;
17520;SDS011;8878;-33.370;-70.552;2023-05-14T07:40:47;2.37;;;1.40;;
17520;SDS011;8878;-33.370;-70.552;2023-05-14T07:43:16;3.13;;;2.10;;
17520;SDS011;8878;-33.370;-70.552;2023-05-14T07:45:47;4.30;;;1.43;;
17520;SDS011;8878;-33.370;-70.552;2023-05-14T07:48:17;2.90;;;1.10;;
17520;SDS011;8878;-33.370;-70.552;2023-05-14T07:50:47;2.03;;;1.23;;
17520;SDS011;8878;-33.370;-70.552;2023-05-14T07:53:16;1.27;;;0.87;;
17520;SDS011;8878;-33.370;-70.552;2023-05-14T07:55:49;0.90;;;0.80;;
17520;SDS011;8878;-33.370;-70.552;2023-05-14T07:58:19;1.27;;;0.80;;
17520;SDS011;8878;-33.370;-70.552;2023-05-14T08:00:51;1.40;;;1.20;;
17520;SDS011;8878;-33.370;-70.552;2023-05-14T08:03:23;1.03;;;0.90;;
17520;SDS011;8878;-33.370;-70.552;2023-05-14T08:05:52;1.80;;;1.07;;
17520;SDS011;8878;-33.370;-70.552;2023-05-14T08:08:22;1.13;;;0.80;;
17520;SDS011;8878;-33.370;-70.552;2023-05-14T08:10:52;6.10;;;0.83;;
17520;SDS011;8878;-33.370;-70.552;2023-05-14T08:13:21;0.73;;;0.70;;
17520;SDS011;8878;-33.370;-70.552;2023-05-14T08:15:52;0.60;;;0.60;;
17520;SDS011;8878;-33.370;-70.552;2023-05-14T08:18:22;0.67;;;0.47;;
17520;SDS011;8878;-33.370;-70.552;2023-05-14T08:20:52;10.00;;;1.00;;
17520;SDS011;8878;-33.370;-70.552;2023-05-14T08:23:21;0.53;;;0.53;;
17520;SDS011;8878;-33.370;-70.552;2023-05-14T08:25:53;1.93;;;0.90;;
17520;SDS011;8878;-33.370;-70.552;2023-05-14T08:28:23;1.27;;;0.50;;
17520;SDS011;8878;-33.370;-70.552;2023-05-14T08:30:54;0.40;;;0.40;;
17520;SDS011;8878;-33.370;-70.552;2023-05-14T08:33:24;2.22;;;0.80;;
17520;SDS011;8878;-33.370;-70.552;2023-05-14T08:35:53;1.03;;;0.50;;
17520;SDS011;8878;-33.370;-70.552;2023-05-14T08:38:25;1.58;;;0.40;;
17520;SDS011;8878;-33.370;-70.552;2023-05-14T08:40:55;0.33;;;0.33;;
17520;SDS011;8878;-33.370;-70.552;2023-05-14T08:43:25;1.23;;;0.30;;
17520;SDS011;8878;-33.370;-70.552;2023-05-14T08:45:59;0.37;;;0.33;;
17520;SDS011;8878;-33.370;-70.552;2023-05-14T08:48:32;1.23;;;0.50;;
17520;SDS011;8878;-33.370;-70.552;2023-05-14T08:51:05;5.20;;;0.70;;
17520;SDS011;8878;-33.370;-70.552;2023-05-14T08:53:35;0.50;;;0.50;;
17520;SDS011;8878;-33.370;-70.552;2023-05-14T08:56:05;0.77;;;0.50;;
17520;SDS011;8878;-33.370;-70.552;2023-05-14T08:58:35;1.23;;;0.77;;
17520;SDS011;8878;-33.370;-70.552;2023-05-14T09:01:07;0.20;;;0.20;;
17520;SDS011;8878;-33.370;-70.552;2023-05-14T09:03:37;0.57;;;0.53;;
17520;SDS011;8878;-33.370;-70.552;2023-05-14T09:06:06;0.50;;;0.33;;
17520;SDS011;8878;-33.370;-70.552;2023-05-14T09:08:37;0.70;;;0.57;;
17520;SDS011;8878;-33.370;-70.552;2023-05-14T09:11:07;0.20;;;0.20;;
17520;SDS011;8878;-33.370;-70.552;2023-05-14T09:13:37;0.20;;;0.20;;
17520;SDS011;8878;-33.370;-70.552;2023-05-14T09:16:08;0.30;;;0.20;;
17520;SDS011;8878;-33.370;-70.552;2023-05-14T09:18:39;0.40;;;0.40;;
17520;SDS011;8878;-33.370;-70.552;2023-05-14T09:21:12;6.43;;;0.50;;
17520;SDS011;8878;-33.370;-70.552;2023-05-14T09:23:42;0.25;;;0.25;;
17520;SDS011;8878;-33.370;-70.552;2023-05-14T09:26:16;0.32;;;0.32;;
17520;SDS011;8878;-33.370;-70.552;2023-05-14T09:28:46;0.90;;;0.13;;
17520;SDS011;8878;-33.370;-70.552;2023-05-14T09:31:17;0.30;;;0.30;;
17520;SDS011;8878;-33.370;-70.552;2023-05-14T09:33:49;0.50;;;0.50;;
17520;SDS011;8878;-33.370;-70.552;2023-05-14T09:36:19;0.20;;;0.20;;
17520;SDS011;8878;-33.370;-70.552;2023-05-14T09:38:49;0.20;;;0.10;;
17520;SDS011;8878;-33.370;-70.552;2023-05-14T09:41:19;0.10;;;0.10;;
17520;SDS011;8878;-33.370;-70.552;2023-05-14T09:43:50;0.20;;;0.20;;
17520;SDS011;8878;-33.370;-70.552;2023-05-14T09:46:23;0.82;;;0.52;;
17520;SDS011;8878;-33.370;-70.552;2023-05-14T09:48:55;4.13;;;0.30;;
17520;SDS011;8878;-33.370;-70.552;2023-05-14T09:51:24;0.30;;;0.08;;
17520;SDS011;8878;-33.370;-70.552;2023-05-14T09:53:56;0.17;;;0.17;;
17520;SDS011;8878;-33.370;-70.552;2023-05-14T09:56:27;0.32;;;0.10;;
17520;SDS011;8878;-33.370;-70.552;2023-05-14T09:58:57;0.20;;;0.20;;
17520;SDS011;8878;-33.370;-70.552;2023-05-14T10:01:28;0.45;;;0.22;;
17520;SDS011;8878;-33.370;-70.552;2023-05-14T10:03:58;1.02;;;0.20;;
17520;SDS011;8878;-33.370;-70.552;2023-05-14T10:06:31;0.43;;;0.40;;
17520;SDS011;8878;-33.370;-70.552;2023-05-14T10:09:04;0.10;;;0.10;;
17520;SDS011;8878;-33.370;-70.552;2023-05-14T10:11:41;0.30;;;0.15;;
17520;SDS011;8878;-33.370;-70.552;2023-05-14T10:14:12;0.20;;;0.20;;
17520;SDS011;8878;-33.370;-70.552;2023-05-14T10:16:48;0.63;;;0.20;;
17520;SDS011;8878;-33.370;-70.552;2023-05-14T10:19:19;0.40;;;0.15;;
17520;SDS011;8878;-33.370;-70.552;2023-05-14T10:21:52;0.15;;;0.15;;
17520;SDS011;8878;-33.370;-70.552;2023-05-14T10:24:25;0.95;;;0.43;;
17520;SDS011;8878;-33.370;-70.552;2023-05-14T10:26:55;0.50;;;0.10;;
17520;SDS011;8878;-33.370;-70.552;2023-05-14T10:29:31;2.95;;;0.55;;
17520;SDS011;8878;-33.370;-70.552;2023-05-14T10:32:04;0.10;;;0.10;;
17520;SDS011;8878;-33.370;-70.552;2023-05-14T10:34:36;0.10;;;0.10;;
17520;SDS011;8878;-33.370;-70.552;2023-05-14T10:37:09;0.22;;;0.17;;
17520;SDS011;8878;-33.370;-70.552;2023-05-14T10:39:40;0.10;;;0.10;;
17520;SDS011;8878;-33.370;-70.552;2023-05-14T10:42:11;0.10;;;0.10;;
17520;SDS011;8878;-33.370;-70.552;2023-05-14T10:44:44;0.10;;;0.10;;
17520;SDS011;8878;-33.370;-70.552;2023-05-14T10:47:18;1.55;;;0.30;;
17520;SDS011;8878;-33.370;-70.552;2023-05-14T10:49:48;0.10;;;0.10;;
17520;SDS011;8878;-33.370;-70.552;2023-05-14T10:52:20;0.20;;;0.20;;
17520;SDS011;8878;-33.370;-70.552;2023-05-14T10:54:52;0.17;;;0.17;;
17520;SDS011;8878;-33.370;-70.552;2023-05-14T10:57:23;1.75;;;0.40;;
17520;SDS011;8878;-33.370;-70.552;2023-05-14T10:59:55;0.17;;;0.17;;
17520;SDS011;8878;-33.370;-70.552;2023-05-14T11:02:28;0.10;;;0.10;;
17520;SDS011;8878;-33.370;-70.552;2023-05-14T11:05:00;0.10;;;0.10;;
17520;SDS011;8878;-33.370;-70.552;2023-05-14T11:07:31;0.10;;;0.10;;
17520;SDS011;8878;-33.370;-70.552;2023-05-14T11:10:02;0.68;;;0.30;;
17520;SDS011;8878;-33.370;-70.552;2023-05-14T11:12:32;0.00;;;0.00;;
17520;SDS011;8878;-33.370;-70.552;2023-05-14T11:15:03;0.00;;;0.00;;
17520;SDS011;8878;-33.370;-70.552;2023-05-14T11:17:36;0.10;;;0.10;;
17520;SDS011;8878;-33.370;-70.552;2023-05-14T11:20:07;0.17;;;0.15;;
17520;SDS011;8878;-33.370;-70.552;2023-05-14T11:22:37;0.05;;;0.05;;
17520;SDS011;8878;-33.370;-70.552;2023-05-14T11:25:08;0.17;;;0.10;;
17520;SDS011;8878;-33.370;-70.552;2023-05-14T11:27:39;0.22;;;0.13;;
17520;SDS011;8878;-33.370;-70.552;2023-05-14T11:30:11;0.15;;;0.03;;
17520;SDS011;8878;-33.370;-70.552;2023-05-14T11:32:45;0.15;;;0.15;;
17520;SDS011;8878;-33.370;-70.552;2023-05-14T11:35:16;0.00;;;0.00;;
17520;SDS011;8878;-33.370;-70.552;2023-05-14T11:37:48;0.10;;;0.10;;
17520;SDS011;8878;-33.370;-70.552;2023-05-14T11:40:18;0.10;;;0.10;;
17520;SDS011;8878;-33.370;-70.552;2023-05-14T11:42:50;0.20;;;0.20;;
17520;SDS011;8878;-33.370;-70.552;2023-05-14T11:45:23;0.03;;;0.03;;
17520;SDS011;8878;-33.370;-70.552;2023-05-14T11:47:56;0.10;;;0.10;;
17520;SDS011;8878;-33.370;-70.552;2023-05-14T11:50:26;0.10;;;0.10;;
17520;SDS011;8878;-33.370;-70.552;2023-05-14T11:52:56;0.10;;;0.10;;
17520;SDS011;8878;-33.370;-70.552;2023-05-14T11:55:26;0.10;;;0.00;;
17520;SDS011;8878;-33.370;-70.552;2023-05-14T11:57:56;0.20;;;0.05;;
17520;SDS011;8878;-33.370;-70.552;2023-05-14T12:00:25;0.10;;;0.10;;
17520;SDS011;8878;-33.370;-70.552;2023-05-14T12:02:57;0.00;;;0.00;;
17520;SDS011;8878;-33.370;-70.552;2023-05-14T12:05:28;0.17;;;0.17;;
17520;SDS011;8878;-33.370;-70.552;2023-05-14T12:07:57;0.00;;;0.00;;
17520;SDS011;8878;-33.370;-70.552;2023-05-14T12:10:27;0.22;;;0.15;;
17520;SDS011;8878;-33.370;-70.552;2023-05-14T12:12:57;0.00;;;0.00;;
17520;SDS011;8878;-33.370;-70.552;2023-05-14T12:15:26;0.00;;;0.00;;
17520;SDS011;8878;-33.370;-70.552;2023-05-14T12:17:58;0.50;;;0.08;;
17520;SDS011;8878;-33.370;-70.552;2023-05-14T12:20:28;0.00;;;0.00;;
17520;SDS011;8878;-33.370;-70.552;2023-05-14T12:22:58;0.00;;;0.00;;
17520;SDS011;8878;-33.370;-70.552;2023-05-14T12:25:27;0.00;;;0.00;;
17520;SDS011;8878;-33.370;-70.552;2023-05-14T12:27:57;0.25;;;0.00;;
17520;SDS011;8878;-33.370;-70.552;2023-05-14T12:30:27;0.10;;;0.10;;
17520;SDS011;8878;-33.370;-70.552;2023-05-14T12:33:05;0.00;;;0.00;;
17520;SDS011;8878;-33.370;-70.552;2023-05-14T12:35:35;0.25;;;0.10;;
17520;SDS011;8878;-33.370;-70.552;2023-05-14T12:38:04;0.00;;;0.00;;
17520;SDS011;8878;-33.370;-70.552;2023-05-14T12:40:34;0.00;;;0.00;;
17520;SDS011;8878;-33.370;-70.552;2023-05-14T12:43:04;0.80;;;0.13;;
17520;SDS011;8878;-33.370;-70.552;2023-05-14T12:45:34;0.68;;;0.30;;
17520;SDS011;8878;-33.370;-70.552;2023-05-14T12:48:05;0.00;;;0.00;;
17520;SDS011;8878;-33.370;-70.552;2023-05-14T12:50:35;0.00;;;0.00;;
17520;SDS011;8878;-33.370;-70.552;2023-05-14T12:53:05;0.10;;;0.10;;
17520;SDS011;8878;-33.370;-70.552;2023-05-14T12:55:34;0.00;;;0.00;;
17520;SDS011;8878;-33.370;-70.552;2023-05-14T12:58:04;0.20;;;0.00;;
17520;SDS011;8878;-33.370;-70.552;2023-05-14T13:00:33;0.20;;;0.20;;
17520;SDS011;8878;-33.370;-70.552;2023-05-14T13:03:05;0.00;;;0.00;;
17520;SDS011;8878;-33.370;-70.552;2023-05-14T13:05:35;0.00;;;0.00;;
17520;SDS011;8878;-33.370;-70.552;2023-05-14T13:08:04;0.93;;;0.10;;
17520;SDS011;8878;-33.370;-70.552;2023-05-14T13:10:34;0.17;;;0.00;;
17520;SDS011;8878;-33.370;-70.552;2023-05-14T13:13:03;0.00;;;0.00;;
17520;SDS011;8878;-33.370;-70.552;2023-05-14T13:15:34;0.10;;;0.10;;
17520;SDS011;8878;-33.370;-70.552;2023-05-14T13:18:06;0.05;;;0.05;;
17520;SDS011;8878;-33.370;-70.552;2023-05-14T13:20:36;0.00;;;0.00;;
17520;SDS011;8878;-33.370;-70.552;2023-05-14T13:23:05;0.15;;;0.10;;
17520;SDS011;8878;-33.370;-70.552;2023-05-14T13:25:35;0.60;;;0.08;;
17520;SDS011;8878;-33.370;-70.552;2023-05-14T13:28:04;0.00;;;0.00;;
17520;SDS011;8878;-33.370;-70.552;2023-05-14T13:30:34;0.10;;;0.10;;
17520;SDS011;8878;-33.370;-70.552;2023-05-14T13:33:04;2.15;;;0.20;;
17520;SDS011;8878;-33.370;-70.552;2023-05-14T13:35:35;3.20;;;0.15;;
17520;SDS011;8878;-33.370;-70.552;2023-05-14T13:38:05;0.10;;;0.10;;
17520;SDS011;8878;-33.370;-70.552;2023-05-14T13:40:34;0.20;;;0.00;;
17520;SDS011;8878;-33.370;-70.552;2023-05-14T13:43:04;0.00;;;0.00;;
17520;SDS011;8878;-33.370;-70.552;2023-05-14T13:45:34;1.95;;;0.30;;
17520;SDS011;8878;-33.370;-70.552;2023-05-14T13:48:03;7.35;;;3.08;;
17520;SDS011;8878;-33.370;-70.552;2023-05-14T13:50:35;14.48;;;4.93;;
17520;SDS011;8878;-33.370;-70.552;2023-05-14T13:53:04;13.65;;;5.68;;
17520;SDS011;8878;-33.370;-70.552;2023-05-14T13:55:34;11.50;;;4.65;;
17520;SDS011;8878;-33.370;-70.552;2023-05-14T13:58:03;11.00;;;4.25;;
17520;SDS011;8878;-33.370;-70.552;2023-05-14T14:00:34;14.70;;;3.70;;
17520;SDS011;8878;-33.370;-70.552;2023-05-14T14:03:04;13.73;;;3.92;;
17520;SDS011;8878;-33.370;-70.552;2023-05-14T14:05:36;12.68;;;5.05;;
17520;SDS011;8878;-33.370;-70.552;2023-05-14T14:08:05;12.43;;;5.05;;
17520;SDS011;8878;-33.370;-70.552;2023-05-14T14:10:34;12.05;;;5.13;;
17520;SDS011;8878;-33.370;-70.552;2023-05-14T14:13:05;11.18;;;5.05;;
17520;SDS011;8878;-33.370;-70.552;2023-05-14T14:15:36;15.55;;;5.43;;
17520;SDS011;8878;-33.370;-70.552;2023-05-14T14:18:07;16.80;;;5.82;;
17520;SDS011;8878;-33.370;-70.552;2023-05-14T14:20:37;14.70;;;4.30;;
17520;SDS011;8878;-33.370;-70.552;2023-05-14T14:23:06;13.27;;;5.03;;
17520;SDS011;8878;-33.370;-70.552;2023-05-14T14:25:36;14.15;;;4.53;;
17520;SDS011;8878;-33.370;-70.552;2023-05-14T14:28:05;16.33;;;4.60;;
17520;SDS011;8878;-33.370;-70.552;2023-05-14T14:30:34;7.82;;;3.47;;
17520;SDS011;8878;-33.370;-70.552;2023-05-14T14:33:04;12.05;;;4.82;;
17520;SDS011;8878;-33.370;-70.552;2023-05-14T14:35:36;9.48;;;4.18;;